ENFR weather

CLOSED Frigg QP Platform
Hordaland, Norway

Public forecast

Using degrees Celsius for public forecast. Weather courtesy of forecast.io.

METAR (pilot weather report)

Closest report is Oseberg A Platform, 43.2 nm (80.1 km) NNE. Retrieved 2019/05/21 04:20 UTC (27 minutes ago):

ENOA 210420Z 35020KT 0400 FG DZ OVC003 08/08 Q1012 W///S3

TAF (pilot weather forecast)

Closest forecast is Oseberg A Platform, 43.2 nm (80.1 km) NNE. Retrieved 2019/05/21 03:57 UTC (50 minutes ago):

TAF TAF ENOA 210200Z 2103/2203 36020KT 0100 FG VV001 TEMPO 2103/2203 6000 SCT003